Datong, China
Current Conditions -  °F | °C
As of 9:00 PM on Friday 28 Nov 2014 (Local Time) from ZBHH Reporting Station
Clear Clear  
Wind Chill: 17°   Ceiling: Unl
Heat Index: 25°   Visibility: 4mi
Dew Point: 21°   Wind: 7mph
Humidity: 86%   Direction: 50°NE
Pressure: 29.97"   Gusts: NA
Location:  40.08°N, 113.3°E
Report Text: ZBHH 281300Z 05003MPS 010V080 7000 NSC M04/M06 Q1015 NOSIG
Loading
Personal Weather Stations






























Interactive Weather Map New forecast layout! Learn more

10-Day Weather Forecast

Advertisements
Track Severe Weather on mobile